ABX weather

Albury Airport
Albury, New South Wales, Australia

Public forecast

Using degrees Celsius for public forecast. Weather courtesy of forecast.io.

Current aviation weather report (METAR) for Albury Airport

Retrieved 2019/10/19 08:00 UTC (37 minutes ago):

YMAY 190800Z AUTO 25011KT 9999 // NCD 14/01 Q1018

Closest aviation forecast (TAF) to Albury Airport

Closest forecast is Wangaratta Airport, 37.8 nm (70.0 km) WSW. Retrieved 2019-10-19 02:57 UTC (6 hours ago):

TAF TAF YWGT 190154Z 1902/1914 26014G25KT 9999 -SHRA FEW040 FM190700 25010KT CAVOK